Mugla, Turkey
Current Conditions -  °F | °C
As of 10:50 PM on Tuesday 25 Nov 2014 (Local Time) from LTFE Reporting Station
Clear Clear  
Wind Chill: 48°   Ceiling: Unl
Heat Index: 48°   Visibility: 6mi
Dew Point: 36°   Wind: 3mph
Humidity: 62%   Direction: NA
Pressure: 30"   Gusts: NA
Location:  37.22°N, 28.36°E
Report Text: LTFE 252050Z VRB03KT CAVOK 09/02 Q1016 NOSIG
Loading
Personal Weather Stations






























Interactive Weather Map New forecast layout! Learn more

10-Day Weather Forecast

Advertisements
Track Severe Weather on mobile